sensor_id;sensor_type;location;lat;lon;timestamp;pressure;altitude;pressure_sealevel;temperature;humidity
35519;BME280;21627;48.216;16.482;2023-08-06T00:01:12;98624.63;;;15.49;100.00
35519;BME280;21627;48.216;16.482;2023-08-06T00:03:40;98621.91;;;15.52;100.00
35519;BME280;21627;48.216;16.482;2023-08-06T00:06:07;98603.19;;;15.42;100.00
35519;BME280;21627;48.216;16.482;2023-08-06T00:08:34;98612.69;;;15.43;100.00
35519;BME280;21627;48.216;16.482;2023-08-06T00:11:01;98615.34;;;15.42;100.00
35519;BME280;21627;48.216;16.482;2023-08-06T00:13:28;98616.00;;;15.47;100.00
35519;BME280;21627;48.216;16.482;2023-08-06T00:15:56;98613.59;;;15.42;100.00
35519;BME280;21627;48.216;16.482;2023-08-06T00:18:23;98620.63;;;15.40;100.00
35519;BME280;21627;48.216;16.482;2023-08-06T00:20:50;98625.03;;;15.38;100.00
35519;BME280;21627;48.216;16.482;2023-08-06T00:23:19;98625.88;;;15.39;100.00
35519;BME280;21627;48.216;16.482;2023-08-06T00:25:51;98632.00;;;15.38;100.00
35519;BME280;21627;48.216;16.482;2023-08-06T00:28:18;98624.13;;;15.39;100.00
35519;BME280;21627;48.216;16.482;2023-08-06T00:30:45;98633.81;;;15.35;100.00
35519;BME280;21627;48.216;16.482;2023-08-06T00:33:12;98626.97;;;15.33;100.00
35519;BME280;21627;48.216;16.482;2023-08-06T00:35:39;98624.38;;;15.33;100.00
35519;BME280;21627;48.216;16.482;2023-08-06T00:38:06;98620.91;;;15.32;100.00
35519;BME280;21627;48.216;16.482;2023-08-06T00:40:33;98612.31;;;15.30;100.00
35519;BME280;21627;48.216;16.482;2023-08-06T00:43:00;98611.47;;;15.30;100.00
35519;BME280;21627;48.216;16.482;2023-08-06T00:45:28;98606.19;;;15.31;100.00
35519;BME280;21627;48.216;16.482;2023-08-06T00:47:56;98608.72;;;15.33;100.00
35519;BME280;21627;48.216;16.482;2023-08-06T00:50:23;98607.94;;;15.31;100.00
35519;BME280;21627;48.216;16.482;2023-08-06T00:52:51;98596.72;;;15.29;100.00
35519;BME280;21627;48.216;16.482;2023-08-06T00:55:19;98589.75;;;15.29;100.00
35519;BME280;21627;48.216;16.482;2023-08-06T00:57:46;98579.41;;;15.28;100.00
35519;BME280;21627;48.216;16.482;2023-08-06T01:00:13;98576.81;;;15.28;100.00
35519;BME280;21627;48.216;16.482;2023-08-06T01:02:41;98577.66;;;15.28;100.00
35519;BME280;21627;48.216;16.482;2023-08-06T01:05:09;98579.59;;;15.23;100.00
35519;BME280;21627;48.216;16.482;2023-08-06T01:14:04;98568.50;;;15.18;100.00
35519;BME280;21627;48.216;16.482;2023-08-06T01:16:33;98576.31;;;15.18;100.00
35519;BME280;21627;48.216;16.482;2023-08-06T01:19:02;98573.94;;;15.12;100.00
35519;BME280;21627;48.216;16.482;2023-08-06T01:21:29;98568.16;;;15.04;100.00
35519;BME280;21627;48.216;16.482;2023-08-06T01:23:56;98573.16;;;15.10;100.00
35519;BME280;21627;48.216;16.482;2023-08-06T01:26:51;98568.22;;;15.02;100.00
35519;BME280;21627;48.216;16.482;2023-08-06T01:29:44;98565.66;;;15.01;100.00
35519;BME280;21627;48.216;16.482;2023-08-06T01:32:13;98560.97;;;15.10;100.00
35519;BME280;21627;48.216;16.482;2023-08-06T01:34:43;98556.06;;;15.03;100.00
35519;BME280;21627;48.216;16.482;2023-08-06T01:37:11;98565.78;;;14.98;100.00
35519;BME280;21627;48.216;16.482;2023-08-06T01:39:42;98563.78;;;15.04;100.00
35519;BME280;21627;48.216;16.482;2023-08-06T01:42:10;98550.28;;;14.95;100.00
35519;BME280;21627;48.216;16.482;2023-08-06T01:44:37;98548.66;;;14.92;100.00
35519;BME280;21627;48.216;16.482;2023-08-06T01:47:04;98544.22;;;14.94;100.00
35519;BME280;21627;48.216;16.482;2023-08-06T01:49:32;98551.31;;;14.90;100.00
35519;BME280;21627;48.216;16.482;2023-08-06T01:51:59;98553.19;;;14.87;100.00
35519;BME280;21627;48.216;16.482;2023-08-06T01:54:26;98540.94;;;14.89;100.00
35519;BME280;21627;48.216;16.482;2023-08-06T01:56:54;98538.25;;;14.92;100.00
35519;BME280;21627;48.216;16.482;2023-08-06T01:59:21;98518.47;;;14.86;100.00
35519;BME280;21627;48.216;16.482;2023-08-06T02:01:48;98520.06;;;14.90;100.00
35519;BME280;21627;48.216;16.482;2023-08-06T02:04:16;98515.88;;;14.86;100.00
35519;BME280;21627;48.216;16.482;2023-08-06T02:06:43;98520.31;;;14.84;100.00
35519;BME280;21627;48.216;16.482;2023-08-06T02:09:10;98512.88;;;14.74;100.00
35519;BME280;21627;48.216;16.482;2023-08-06T02:11:37;98525.69;;;14.80;100.00
35519;BME280;21627;48.216;16.482;2023-08-06T02:14:04;98514.53;;;14.76;100.00
35519;BME280;21627;48.216;16.482;2023-08-06T02:16:31;98513.69;;;14.76;100.00
35519;BME280;21627;48.216;16.482;2023-08-06T02:18:58;98519.03;;;14.71;100.00
35519;BME280;21627;48.216;16.482;2023-08-06T02:21:25;98517.41;;;14.68;100.00
35519;BME280;21627;48.216;16.482;2023-08-06T02:23:52;98532.81;;;14.75;100.00
35519;BME280;21627;48.216;16.482;2023-08-06T02:26:19;98519.03;;;14.71;100.00
35519;BME280;21627;48.216;16.482;2023-08-06T02:28:46;98532.91;;;14.71;100.00
35519;BME280;21627;48.216;16.482;2023-08-06T02:31:13;98531.22;;;14.70;100.00
35519;BME280;21627;48.216;16.482;2023-08-06T02:33:40;98524.38;;;14.68;100.00
35519;BME280;21627;48.216;16.482;2023-08-06T02:36:07;98519.13;;;14.69;100.00
35519;BME280;21627;48.216;16.482;2023-08-06T02:38:35;98502.91;;;14.61;100.00
35519;BME280;21627;48.216;16.482;2023-08-06T02:41:03;98499.34;;;14.64;100.00
35519;BME280;21627;48.216;16.482;2023-08-06T02:43:31;98483.81;;;14.62;100.00
35519;BME280;21627;48.216;16.482;2023-08-06T02:45:59;98485.59;;;14.62;100.00
35519;BME280;21627;48.216;16.482;2023-08-06T02:48:27;98498.47;;;14.65;100.00
35519;BME280;21627;48.216;16.482;2023-08-06T02:50:58;98481.16;;;14.64;100.00
35519;BME280;21627;48.216;16.482;2023-08-06T02:53:28;98490.78;;;14.62;100.00
35519;BME280;21627;48.216;16.482;2023-08-06T02:55:55;98503.72;;;14.63;100.00
35519;BME280;21627;48.216;16.482;2023-08-06T02:58:22;98486.63;;;14.56;100.00
35519;BME280;21627;48.216;16.482;2023-08-06T03:01:01;98496.28;;;14.53;100.00
35519;BME280;21627;48.216;16.482;2023-08-06T03:03:31;98500.50;;;14.57;100.00
35519;BME280;21627;48.216;16.482;2023-08-06T03:05:59;98513.50;;;14.57;100.00
35519;BME280;21627;48.216;16.482;2023-08-06T03:08:26;98499.47;;;14.61;100.00
35519;BME280;21627;48.216;16.482;2023-08-06T03:10:53;98511.88;;;14.53;100.00
35519;BME280;21627;48.216;16.482;2023-08-06T03:13:20;98502.25;;;14.56;100.00
35519;BME280;21627;48.216;16.482;2023-08-06T03:15:59;98495.56;;;14.49;100.00
35519;BME280;21627;48.216;16.482;2023-08-06T03:18:27;98496.41;;;14.49;100.00
35519;BME280;21627;48.216;16.482;2023-08-06T03:20:54;98500.06;;;14.44;100.00
35519;BME280;21627;48.216;16.482;2023-08-06T03:23:21;98493.84;;;14.48;100.00
35519;BME280;21627;48.216;16.482;2023-08-06T03:25:49;98502.72;;;14.42;100.00
35519;BME280;21627;48.216;16.482;2023-08-06T03:28:16;98510.25;;;14.50;100.00
35519;BME280;21627;48.216;16.482;2023-08-06T03:30:43;98510.34;;;14.47;100.00
35519;BME280;21627;48.216;16.482;2023-08-06T03:33:10;98504.34;;;14.45;100.00
35519;BME280;21627;48.216;16.482;2023-08-06T03:35:37;98487.28;;;14.38;100.00
35519;BME280;21627;48.216;16.482;2023-08-06T03:38:04;98499.16;;;14.45;100.00
35519;BME280;21627;48.216;16.482;2023-08-06T03:40:32;98497.50;;;14.42;100.00
35519;BME280;21627;48.216;16.482;2023-08-06T03:43:01;98498.19;;;14.47;100.00
35519;BME280;21627;48.216;16.482;2023-08-06T03:45:28;98486.03;;;14.48;100.00
35519;BME280;21627;48.216;16.482;2023-08-06T03:47:55;98473.09;;;14.46;100.00
35519;BME280;21627;48.216;16.482;2023-08-06T03:50:22;98480.84;;;14.48;100.00
35519;BME280;21627;48.216;16.482;2023-08-06T03:52:50;98489.59;;;14.45;100.00
35519;BME280;21627;48.216;16.482;2023-08-06T03:55:17;98490.34;;;14.49;100.00
35519;BME280;21627;48.216;16.482;2023-08-06T03:57:44;98485.31;;;14.44;100.00
35519;BME280;21627;48.216;16.482;2023-08-06T04:00:11;98481.59;;;14.52;100.00
35519;BME280;21627;48.216;16.482;2023-08-06T04:02:39;98481.69;;;14.48;100.00
35519;BME280;21627;48.216;16.482;2023-08-06T04:05:07;98477.03;;;14.58;100.00
35519;BME280;21627;48.216;16.482;2023-08-06T04:07:35;98485.88;;;14.53;100.00
35519;BME280;21627;48.216;16.482;2023-08-06T04:10:04;98482.38;;;14.54;100.00
35519;BME280;21627;48.216;16.482;2023-08-06T04:12:31;98492.00;;;14.52;100.00
35519;BME280;21627;48.216;16.482;2023-08-06T04:15:01;98475.78;;;14.43;100.00
35519;BME280;21627;48.216;16.482;2023-08-06T04:17:28;98485.16;;;14.49;100.00
35519;BME280;21627;48.216;16.482;2023-08-06T04:19:55;98479.63;;;14.58;100.00
35519;BME280;21627;48.216;16.482;2023-08-06T04:22:26;98479.69;;;14.57;100.00
35519;BME280;21627;48.216;16.482;2023-08-06T04:24:53;98482.44;;;14.52;100.00
35519;BME280;21627;48.216;16.482;2023-08-06T04:27:20;98468.63;;;14.50;100.00
35519;BME280;21627;48.216;16.482;2023-08-06T04:29:47;98473.88;;;14.48;100.00
35519;BME280;21627;48.216;16.482;2023-08-06T04:32:14;98462.75;;;14.45;100.00
35519;BME280;21627;48.216;16.482;2023-08-06T04:34:41;98474.75;;;14.49;100.00
35519;BME280;21627;48.216;16.482;2023-08-06T04:37:08;98466.03;;;14.50;100.00
35519;BME280;21627;48.216;16.482;2023-08-06T04:39:35;98468.75;;;14.47;100.00
35519;BME280;21627;48.216;16.482;2023-08-06T04:42:03;98475.72;;;14.46;100.00
35519;BME280;21627;48.216;16.482;2023-08-06T04:44:30;98472.16;;;14.49;100.00
35519;BME280;21627;48.216;16.482;2023-08-06T04:46:57;98466.88;;;14.50;100.00
35519;BME280;21627;48.216;16.482;2023-08-06T04:49:25;98464.28;;;14.50;100.00
35519;BME280;21627;48.216;16.482;2023-08-06T04:51:52;98452.97;;;14.52;100.00
35519;BME280;21627;48.216;16.482;2023-08-06T04:54:19;98439.97;;;14.52;100.00
35519;BME280;21627;48.216;16.482;2023-08-06T04:56:46;98456.22;;;14.58;100.00
35519;BME280;21627;48.216;16.482;2023-08-06T04:59:14;98451.00;;;14.58;100.00
35519;BME280;21627;48.216;16.482;2023-08-06T05:01:41;98456.09;;;14.61;100.00
35519;BME280;21627;48.216;16.482;2023-08-06T05:04:08;98461.25;;;14.63;100.00
35519;BME280;21627;48.216;16.482;2023-08-06T05:06:35;98451.66;;;14.65;100.00
35519;BME280;21627;48.216;16.482;2023-08-06T05:09:05;98452.53;;;14.64;100.00
35519;BME280;21627;48.216;16.482;2023-08-06T05:11:33;98443.75;;;14.66;100.00
35519;BME280;21627;48.216;16.482;2023-08-06T05:14:00;98452.59;;;14.62;100.00
35519;BME280;21627;48.216;16.482;2023-08-06T05:16:28;98466.41;;;14.64;100.00
35519;BME280;21627;48.216;16.482;2023-08-06T05:18:55;98456.16;;;14.60;100.00
35519;BME280;21627;48.216;16.482;2023-08-06T05:21:22;98463.91;;;14.61;100.00
35519;BME280;21627;48.216;16.482;2023-08-06T05:23:49;98458.03;;;14.56;100.00
35519;BME280;21627;48.216;16.482;2023-08-06T05:26:16;98463.91;;;14.61;100.00
35519;BME280;21627;48.216;16.482;2023-08-06T05:28:46;98473.19;;;14.68;100.00
35519;BME280;21627;48.216;16.482;2023-08-06T05:31:13;98467.28;;;14.63;100.00
35519;BME280;21627;48.216;16.482;2023-08-06T05:33:40;98469.84;;;14.65;100.00
35519;BME280;21627;48.216;16.482;2023-08-06T05:36:07;98465.63;;;14.62;100.00
35519;BME280;21627;48.216;16.482;2023-08-06T05:38:34;98464.38;;;14.73;100.00
35519;BME280;21627;48.216;16.482;2023-08-06T05:41:01;98470.41;;;14.73;100.00
35519;BME280;21627;48.216;16.482;2023-08-06T05:43:28;98462.56;;;14.75;100.00
35519;BME280;21627;48.216;16.482;2023-08-06T05:45:56;98468.66;;;14.74;100.00
35519;BME280;21627;48.216;16.482;2023-08-06T05:48:23;98476.16;;;14.81;100.00
35519;BME280;21627;48.216;16.482;2023-08-06T05:50:52;98467.81;;;14.73;100.00
35519;BME280;21627;48.216;16.482;2023-08-06T05:53:19;98461.88;;;14.69;100.00
35519;BME280;21627;48.216;16.482;2023-08-06T05:55:47;98462.06;;;14.65;100.00
35519;BME280;21627;48.216;16.482;2023-08-06T05:58:14;98458.19;;;14.75;100.00
35519;BME280;21627;48.216;16.482;2023-08-06T06:00:41;98471.38;;;14.70;100.00
35519;BME280;21627;48.216;16.482;2023-08-06T06:03:09;98480.66;;;14.78;100.00
35519;BME280;21627;48.216;16.482;2023-08-06T06:05:38;98481.38;;;14.81;100.00
35519;BME280;21627;48.216;16.482;2023-08-06T06:08:08;98481.38;;;14.81;100.00
35519;BME280;21627;48.216;16.482;2023-08-06T06:10:35;98492.28;;;14.91;100.00
35519;BME280;21627;48.216;16.482;2023-08-06T06:13:02;98495.06;;;14.86;100.00
35519;BME280;21627;48.216;16.482;2023-08-06T06:15:29;98490.88;;;14.82;100.00
35519;BME280;21627;48.216;16.482;2023-08-06T06:17:57;98505.53;;;14.85;100.00
35519;BME280;21627;48.216;16.482;2023-08-06T06:20:24;98509.22;;;14.79;100.00
35519;BME280;21627;48.216;16.482;2023-08-06T06:22:51;98504.78;;;14.81;100.00
35519;BME280;21627;48.216;16.482;2023-08-06T06:25:18;98513.38;;;14.83;100.00
35519;BME280;21627;48.216;16.482;2023-08-06T06:27:45;98509.94;;;14.83;100.00
35519;BME280;21627;48.216;16.482;2023-08-06T06:30:12;98509.78;;;14.87;100.00
35519;BME280;21627;48.216;16.482;2023-08-06T06:32:40;98510.66;;;14.86;100.00
35519;BME280;21627;48.216;16.482;2023-08-06T06:35:08;98500.16;;;14.89;100.00
35519;BME280;21627;48.216;16.482;2023-08-06T06:37:36;98507.06;;;14.90;100.00
35519;BME280;21627;48.216;16.482;2023-08-06T06:40:03;98499.97;;;14.94;100.00
35519;BME280;21627;48.216;16.482;2023-08-06T06:42:30;98500.56;;;15.02;100.00
35519;BME280;21627;48.216;16.482;2023-08-06T06:44:58;98495.25;;;15.04;100.00
35519;BME280;21627;48.216;16.482;2023-08-06T06:47:25;98512.47;;;15.08;100.00
35519;BME280;21627;48.216;16.482;2023-08-06T06:49:52;98489.84;;;15.10;100.00
35519;BME280;21627;48.216;16.482;2023-08-06T06:52:20;98498.38;;;15.13;100.00
35519;BME280;21627;48.216;16.482;2023-08-06T06:54:47;98484.47;;;15.14;100.00
35519;BME280;21627;48.216;16.482;2023-08-06T06:57:14;98490.56;;;15.13;100.00
35519;BME280;21627;48.216;16.482;2023-08-06T06:59:41;98497.28;;;15.19;100.00
35519;BME280;21627;48.216;16.482;2023-08-06T07:02:08;98499.69;;;15.24;100.00
35519;BME280;21627;48.216;16.482;2023-08-06T07:04:35;98496.94;;;15.28;100.00
35519;BME280;21627;48.216;16.482;2023-08-06T07:07:02;98499.53;;;15.28;100.00
35519;BME280;21627;48.216;16.482;2023-08-06T07:09:30;98493.66;;;15.23;100.00
35519;BME280;21627;48.216;16.482;2023-08-06T07:11:57;98496.88;;;15.30;100.00
35519;BME280;21627;48.216;16.482;2023-08-06T07:14:28;98498.88;;;15.45;100.00
35519;BME280;21627;48.216;16.482;2023-08-06T07:16:56;98509.47;;;15.41;100.00
35519;BME280;21627;48.216;16.482;2023-08-06T07:19:23;98509.28;;;15.45;100.00
35519;BME280;21627;48.216;16.482;2023-08-06T07:21:51;98499.66;;;15.47;100.00
35519;BME280;21627;48.216;16.482;2023-08-06T07:24:18;98510.94;;;15.48;100.00
35519;BME280;21627;48.216;16.482;2023-08-06T07:26:45;98508.19;;;15.51;100.00
35519;BME280;21627;48.216;16.482;2023-08-06T07:29:13;98515.03;;;15.53;100.00
35519;BME280;21627;48.216;16.482;2023-08-06T07:31:40;98507.28;;;15.52;100.00
35519;BME280;21627;48.216;16.482;2023-08-06T07:34:07;98513.28;;;15.54;100.00
35519;BME280;21627;48.216;16.482;2023-08-06T07:36:34;98505.44;;;15.54;100.00
35519;BME280;21627;48.216;16.482;2023-08-06T07:39:01;98520.13;;;15.56;100.00
35519;BME280;21627;48.216;16.482;2023-08-06T07:41:28;98522.50;;;15.63;100.00
35519;BME280;21627;48.216;16.482;2023-08-06T07:43:55;98511.09;;;15.65;100.00
35519;BME280;21627;48.216;16.482;2023-08-06T07:46:23;98507.53;;;15.68;100.00
35519;BME280;21627;48.216;16.482;2023-08-06T07:48:50;98498.69;;;15.72;100.00
35519;BME280;21627;48.216;16.482;2023-08-06T07:51:17;98484.13;;;15.66;100.00
35519;BME280;21627;48.216;16.482;2023-08-06T07:53:45;98488.72;;;15.82;100.00
35519;BME280;21627;48.216;16.482;2023-08-06T07:56:12;98480.66;;;15.88;100.00
35519;BME280;21627;48.216;16.482;2023-08-06T07:58:39;98484.03;;;15.90;100.00
35519;BME280;21627;48.216;16.482;2023-08-06T08:01:06;98495.19;;;15.93;100.00
35519;BME280;21627;48.216;16.482;2023-08-06T08:03:34;98495.97;;;15.95;100.00
35519;BME280;21627;48.216;16.482;2023-08-06T08:06:01;98498.25;;;16.03;100.00
35519;BME280;21627;48.216;16.482;2023-08-06T08:08:28;98501.56;;;16.07;100.00
35519;BME280;21627;48.216;16.482;2023-08-06T08:10:55;98485.22;;;16.03;100.00
35519;BME280;21627;48.216;16.482;2023-08-06T08:13:23;98492.06;;;16.06;100.00
35519;BME280;21627;48.216;16.482;2023-08-06T08:15:57;98482.06;;;15.95;100.00
35519;BME280;21627;48.216;16.482;2023-08-06T08:18:25;98473.28;;;15.97;100.00
35519;BME280;21627;48.216;16.482;2023-08-06T08:20:52;98470.47;;;16.02;100.00
35519;BME280;21627;48.216;16.482;2023-08-06T08:23:19;98466.91;;;16.05;100.00
35519;BME280;21627;48.216;16.482;2023-08-06T08:25:46;98462.31;;;16.10;100.00
35519;BME280;21627;48.216;16.482;2023-08-06T08:28:14;98456.28;;;16.09;100.00
35519;BME280;21627;48.216;16.482;2023-08-06T08:30:41;98473.22;;;16.19;100.00
35519;BME280;21627;48.216;16.482;2023-08-06T08:33:08;98471.88;;;16.11;100.00
35519;BME280;21627;48.216;16.482;2023-08-06T08:35:36;98480.34;;;16.16;100.00
35519;BME280;21627;48.216;16.482;2023-08-06T08:38:04;98489.38;;;16.07;100.00
35519;BME280;21627;48.216;16.482;2023-08-06T08:40:38;98486.00;;;16.05;100.00
35519;BME280;21627;48.216;16.482;2023-08-06T08:43:09;98489.47;;;16.06;100.00
35519;BME280;21627;48.216;16.482;2023-08-06T08:45:39;98494.53;;;16.09;100.00
35519;BME280;21627;48.216;16.482;2023-08-06T08:48:07;98487.56;;;16.09;100.00
35519;BME280;21627;48.216;16.482;2023-08-06T08:50:35;98484.47;;;16.20;100.00
35519;BME280;21627;48.216;16.482;2023-08-06T08:53:03;98491.47;;;16.19;100.00
35519;BME280;21627;48.216;16.482;2023-08-06T08:55:30;98488.28;;;16.13;100.00
35519;BME280;21627;48.216;16.482;2023-08-06T08:57:58;98485.69;;;16.13;100.00
35519;BME280;21627;48.216;16.482;2023-08-06T09:00:25;98487.69;;;16.06;100.00
35519;BME280;21627;48.216;16.482;2023-08-06T09:02:53;98504.31;;;16.04;100.00
35519;BME280;21627;48.216;16.482;2023-08-06T09:05:21;98501.84;;;16.00;100.00
35519;BME280;21627;48.216;16.482;2023-08-06T09:07:51;98505.81;;;16.09;100.00
35519;BME280;21627;48.216;16.482;2023-08-06T09:10:21;98516.38;;;16.06;100.00
35519;BME280;21627;48.216;16.482;2023-08-06T09:12:52;98514.47;;;16.10;100.00
35519;BME280;21627;48.216;16.482;2023-08-06T09:15:23;98506.66;;;16.10;100.00
35519;BME280;21627;48.216;16.482;2023-08-06T09:17:52;98509.84;;;16.16;100.00
35519;BME280;21627;48.216;16.482;2023-08-06T09:20:20;98511.44;;;16.20;100.00
35519;BME280;21627;48.216;16.482;2023-08-06T09:22:47;98510.31;;;16.26;100.00
35519;BME280;21627;48.216;16.482;2023-08-06T09:25:23;98515.34;;;16.31;100.00
35519;BME280;21627;48.216;16.482;2023-08-06T09:27:51;98515.66;;;16.23;100.00
35519;BME280;21627;48.216;16.482;2023-08-06T09:30:39;98528.50;;;16.28;100.00
35519;BME280;21627;48.216;16.482;2023-08-06T09:33:09;98532.03;;;16.27;100.00
35519;BME280;21627;48.216;16.482;2023-08-06T09:35:42;98532.22;;;16.22;100.00
35519;BME280;21627;48.216;16.482;2023-08-06T09:38:10;98529.69;;;16.20;100.00
35519;BME280;21627;48.216;16.482;2023-08-06T09:40:39;98522.06;;;16.16;100.00
35519;BME280;21627;48.216;16.482;2023-08-06T09:43:06;98521.13;;;16.17;100.00
35519;BME280;21627;48.216;16.482;2023-08-06T09:45:37;98516.97;;;16.13;100.00
35519;BME280;21627;48.216;16.482;2023-08-06T09:48:07;98521.97;;;16.17;100.00
35519;BME280;21627;48.216;16.482;2023-08-06T09:50:38;98524.00;;;16.11;100.00
35519;BME280;21627;48.216;16.482;2023-08-06T09:53:07;98516.97;;;16.13;100.00
35519;BME280;21627;48.216;16.482;2023-08-06T09:55:35;98522.72;;;16.21;100.00
35519;BME280;21627;48.216;16.482;2023-08-06T09:58:03;98528.75;;;16.21;100.00
35519;BME280;21627;48.216;16.482;2023-08-06T10:00:33;98512.47;;;16.16;100.00
35519;BME280;21627;48.216;16.482;2023-08-06T10:03:07;98520.25;;;16.18;100.00
35519;BME280;21627;48.216;16.482;2023-08-06T10:05:35;98515.03;;;16.18;100.00
35519;BME280;21627;48.216;16.482;2023-08-06T10:08:04;98522.91;;;16.16;100.00
35519;BME280;21627;48.216;16.482;2023-08-06T10:10:33;98527.97;;;16.19;100.00
35519;BME280;21627;48.216;16.482;2023-08-06T10:13:01;98532.06;;;16.25;100.00
35519;BME280;21627;48.216;16.482;2023-08-06T10:15:32;98519.31;;;16.19;100.00
35519;BME280;21627;48.216;16.482;2023-08-06T10:18:01;98515.53;;;16.26;100.00
35519;BME280;21627;48.216;16.482;2023-08-06T10:20:34;98537.25;;;16.27;100.00
35519;BME280;21627;48.216;16.482;2023-08-06T10:23:03;98545.91;;;16.27;100.00
35519;BME280;21627;48.216;16.482;2023-08-06T10:25:39;98537.28;;;16.25;100.00
35519;BME280;21627;48.216;16.482;2023-08-06T10:28:10;98545.19;;;16.23;100.00
35519;BME280;21627;48.216;16.482;2023-08-06T10:30:47;98539.84;;;16.27;100.00
35519;BME280;21627;48.216;16.482;2023-08-06T10:33:15;98540.88;;;16.22;100.00
35519;BME280;21627;48.216;16.482;2023-08-06T10:35:45;98543.75;;;16.37;100.00
35519;BME280;21627;48.216;16.482;2023-08-06T10:38:17;98549.47;;;16.45;100.00
35519;BME280;21627;48.216;16.482;2023-08-06T10:41:14;98548.50;;;16.48;100.00
35519;BME280;21627;48.216;16.482;2023-08-06T10:43:42;98551.72;;;16.34;100.00
35519;BME280;21627;48.216;16.482;2023-08-06T10:46:23;98556.19;;;16.30;100.00
35519;BME280;21627;48.216;16.482;2023-08-06T10:48:51;98551.84;;;16.31;100.00
35519;BME280;21627;48.216;16.482;2023-08-06T10:51:18;98550.88;;;16.33;100.00
35519;BME280;21627;48.216;16.482;2023-08-06T10:53:48;98551.97;;;16.28;100.00
35519;BME280;21627;48.216;16.482;2023-08-06T10:56:22;98559.34;;;16.38;100.00
35519;BME280;21627;48.216;16.482;2023-08-06T10:58:51;98564.44;;;16.41;100.00
35519;BME280;21627;48.216;16.482;2023-08-06T11:01:18;98561.56;;;16.48;100.00
35519;BME280;21627;48.216;16.482;2023-08-06T11:03:46;98556.28;;;16.49;100.00
35519;BME280;21627;48.216;16.482;2023-08-06T11:06:20;98567.56;;;16.50;100.00
35519;BME280;21627;48.216;16.482;2023-08-06T11:08:52;98570.94;;;16.52;100.00
35519;BME280;21627;48.216;16.482;2023-08-06T11:11:22;98569.00;;;16.57;100.00
35519;BME280;21627;48.216;16.482;2023-08-06T11:13:51;98575.56;;;16.65;100.00
35519;BME280;21627;48.216;16.482;2023-08-06T11:16:21;98571.91;;;16.70;100.00
35519;BME280;21627;48.216;16.482;2023-08-06T11:18:50;98590.03;;;16.73;100.00
35519;BME280;21627;48.216;16.482;2023-08-06T11:21:21;98573.69;;;16.69;100.00
35519;BME280;21627;48.216;16.482;2023-08-06T11:23:48;98578.84;;;16.71;100.00
35519;BME280;21627;48.216;16.482;2023-08-06T11:26:20;98578.63;;;16.75;100.00
35519;BME280;21627;48.216;16.482;2023-08-06T11:28:47;98579.69;;;16.92;100.00
35519;BME280;21627;48.216;16.482;2023-08-06T11:31:22;98584.97;;;16.90;100.00
35519;BME280;21627;48.216;16.482;2023-08-06T11:33:54;98588.22;;;16.95;100.00
35519;BME280;21627;48.216;16.482;2023-08-06T11:36:36;98588.22;;;16.95;100.00
35519;BME280;21627;48.216;16.482;2023-08-06T11:39:07;98600.88;;;17.04;100.00
35519;BME280;21627;48.216;16.482;2023-08-06T11:41:36;98596.63;;;17.02;100.00
35519;BME280;21627;48.216;16.482;2023-08-06T11:44:05;98592.53;;;16.96;100.00
35519;BME280;21627;48.216;16.482;2023-08-06T11:46:53;98602.09;;;16.96;100.00
35519;BME280;21627;48.216;16.482;2023-08-06T11:49:45;98606.72;;;17.09;100.00
35519;BME280;21627;48.216;16.482;2023-08-06T11:52:20;98594.72;;;17.05;100.00
35519;BME280;21627;48.216;16.482;2023-08-06T11:55:08;98613.88;;;17.06;100.00
35519;BME280;21627;48.216;16.482;2023-08-06T11:57:39;98607.97;;;17.01;100.00
35519;BME280;21627;48.216;16.482;2023-08-06T12:00:13;98606.22;;;17.01;100.00
35519;BME280;21627;48.216;16.482;2023-08-06T12:02:43;98619.69;;;16.92;100.00
35519;BME280;21627;48.216;16.482;2023-08-06T12:05:22;98630.06;;;16.94;100.00
35519;BME280;21627;48.216;16.482;2023-08-06T12:07:57;98628.06;;;16.80;100.00
35519;BME280;21627;48.216;16.482;2023-08-06T12:10:27;98627.56;;;16.70;100.00
35519;BME280;21627;48.216;16.482;2023-08-06T12:12:55;98630.91;;;16.74;100.00
35519;BME280;21627;48.216;16.482;2023-08-06T12:15:23;98626.47;;;16.76;100.00
35519;BME280;21627;48.216;16.482;2023-08-06T12:17:50;98613.88;;;16.65;100.00
35519;BME280;21627;48.216;16.482;2023-08-06T12:20:18;98620.72;;;16.67;100.00
35519;BME280;21627;48.216;16.482;2023-08-06T12:22:45;98621.69;;;16.65;100.00
35519;BME280;21627;48.216;16.482;2023-08-06T12:25:13;98639.78;;;16.70;100.00
35519;BME280;21627;48.216;16.482;2023-08-06T12:27:42;98622.66;;;16.62;100.00
35519;BME280;21627;48.216;16.482;2023-08-06T12:30:12;98639.13;;;16.64;100.00
35519;BME280;21627;48.216;16.482;2023-08-06T12:32:40;98635.81;;;16.61;100.00
35519;BME280;21627;48.216;16.482;2023-08-06T12:35:08;98634.22;;;16.57;100.00
35519;BME280;21627;48.216;16.482;2023-08-06T12:37:36;98635.81;;;16.61;100.00
35519;BME280;21627;48.216;16.482;2023-08-06T12:40:06;98632.28;;;16.62;100.00
35519;BME280;21627;48.216;16.482;2023-08-06T12:42:53;98629.72;;;16.60;100.00
35519;BME280;21627;48.216;16.482;2023-08-06T12:45:20;98636.56;;;16.63;100.00
35519;BME280;21627;48.216;16.482;2023-08-06T12:47:48;98638.28;;;16.64;100.00
35519;BME280;21627;48.216;16.482;2023-08-06T12:50:17;98640.75;;;16.67;100.00
35519;BME280;21627;48.216;16.482;2023-08-06T12:52:45;98645.00;;;16.70;100.00
35519;BME280;21627;48.216;16.482;2023-08-06T12:55:12;98652.69;;;16.73;100.00